sensor_id;sensor_type;location;lat;lon;timestamp;pressure;altitude;pressure_sealevel;temperature;humidity
55010;BME280;40903;51.638;7.528;2022-11-20T00:01:40;100747.31;;;-3.09;94.06
55010;BME280;40903;51.638;7.528;2022-11-20T00:04:06;100744.81;;;-3.17;94.37
55010;BME280;40903;51.638;7.528;2022-11-20T00:06:31;100748.50;;;-3.18;94.42
55010;BME280;40903;51.638;7.528;2022-11-20T00:08:57;100754.66;;;-3.18;94.65
55010;BME280;40903;51.638;7.528;2022-11-20T00:11:23;100748.31;;;-3.17;94.69
55010;BME280;40903;51.638;7.528;2022-11-20T00:13:50;100745.66;;;-3.17;94.97
55010;BME280;40903;51.638;7.528;2022-11-20T00:16:17;100740.72;;;-3.20;95.20
55010;BME280;40903;51.638;7.528;2022-11-20T00:18:42;100747.28;;;-3.16;95.19
55010;BME280;40903;51.638;7.528;2022-11-20T00:21:16;100740.31;;;-3.17;95.05
55010;BME280;40903;51.638;7.528;2022-11-20T00:23:42;100749.75;;;-3.21;95.11
55010;BME280;40903;51.638;7.528;2022-11-20T00:26:08;100743.97;;;-3.24;95.18
55010;BME280;40903;51.638;7.528;2022-11-20T00:28:34;100741.94;;;-3.22;95.34
55010;BME280;40903;51.638;7.528;2022-11-20T00:31:03;100734.56;;;-3.20;95.29
55010;BME280;40903;51.638;7.528;2022-11-20T00:33:29;100740.09;;;-3.22;95.25
55010;BME280;40903;51.638;7.528;2022-11-20T00:35:58;100744.38;;;-3.27;95.62
55010;BME280;40903;51.638;7.528;2022-11-20T00:38:23;100740.28;;;-3.30;95.85
55010;BME280;40903;51.638;7.528;2022-11-20T00:40:54;100735.34;;;-3.33;96.08
55010;BME280;40903;51.638;7.528;2022-11-20T00:43:19;100736.97;;;-3.38;96.24
55010;BME280;40903;51.638;7.528;2022-11-20T00:45:44;100746.41;;;-3.36;96.30
55010;BME280;40903;51.638;7.528;2022-11-20T00:48:09;100744.16;;;-3.32;96.61
55010;BME280;40903;51.638;7.528;2022-11-20T00:50:34;100739.66;;;-3.32;96.57
55010;BME280;40903;51.638;7.528;2022-11-20T00:53:00;100746.00;;;-3.33;96.40
55010;BME280;40903;51.638;7.528;2022-11-20T00:55:25;100746.00;;;-3.33;96.38
55010;BME280;40903;51.638;7.528;2022-11-20T00:57:50;100752.38;;;-3.34;96.48
55010;BME280;40903;51.638;7.528;2022-11-20T01:00:15;100752.38;;;-3.34;96.48
55010;BME280;40903;51.638;7.528;2022-11-20T01:02:41;100749.06;;;-3.36;96.44
55010;BME280;40903;51.638;7.528;2022-11-20T01:05:06;100751.75;;;-3.36;96.49
55010;BME280;40903;51.638;7.528;2022-11-20T01:07:31;100759.13;;;-3.38;96.40
55010;BME280;40903;51.638;7.528;2022-11-20T01:09:56;100763.63;;;-3.38;96.39
55010;BME280;40903;51.638;7.528;2022-11-20T01:12:22;100762.59;;;-3.37;96.67
55010;BME280;40903;51.638;7.528;2022-11-20T01:14:47;100759.53;;;-3.34;96.52
55010;BME280;40903;51.638;7.528;2022-11-20T01:17:12;100757.28;;;-3.31;97.15
55010;BME280;40903;51.638;7.528;2022-11-20T01:19:38;100745.81;;;-3.25;96.97
55010;BME280;40903;51.638;7.528;2022-11-20T01:22:03;100745.22;;;-3.20;97.28
55010;BME280;40903;51.638;7.528;2022-11-20T01:24:28;100744.44;;;-3.14;97.37
55010;BME280;40903;51.638;7.528;2022-11-20T01:26:53;100748.31;;;-3.10;97.47
55010;BME280;40903;51.638;7.528;2022-11-20T01:29:20;100755.31;;;-3.03;97.70
55010;BME280;40903;51.638;7.528;2022-11-20T01:31:45;100750.19;;;-2.98;97.97
55010;BME280;40903;51.638;7.528;2022-11-20T01:34:12;100749.59;;;-2.93;98.21
55010;BME280;40903;51.638;7.528;2022-11-20T01:36:37;100744.47;;;-2.88;98.55
55010;BME280;40903;51.638;7.528;2022-11-20T01:39:04;100743.84;;;-2.84;99.02
55010;BME280;40903;51.638;7.528;2022-11-20T01:41:31;100738.53;;;-2.77;99.29
55010;BME280;40903;51.638;7.528;2022-11-20T01:44:16;100734.22;;;-2.72;99.28
55010;BME280;40903;51.638;7.528;2022-11-20T01:46:50;100732.59;;;-2.66;99.52
55010;BME280;40903;51.638;7.528;2022-11-20T01:49:19;100722.13;;;-2.61;99.70
55010;BME280;40903;51.638;7.528;2022-11-20T01:51:49;100710.22;;;-2.59;99.99
55010;BME280;40903;51.638;7.528;2022-11-20T01:54:19;100712.28;;;-2.54;100.00
55010;BME280;40903;51.638;7.528;2022-11-20T01:56:47;100711.66;;;-2.50;100.00
55010;BME280;40903;51.638;7.528;2022-11-20T01:59:13;100713.94;;;-2.47;100.00
55010;BME280;40903;51.638;7.528;2022-11-20T02:01:40;100708.78;;;-2.42;100.00
55010;BME280;40903;51.638;7.528;2022-11-20T02:04:06;100700.53;;;-2.40;100.00
55010;BME280;40903;51.638;7.528;2022-11-20T02:06:35;100699.31;;;-2.38;100.00
55010;BME280;40903;51.638;7.528;2022-11-20T02:09:00;100691.50;;;-2.33;100.00
55010;BME280;40903;51.638;7.528;2022-11-20T02:11:26;100685.78;;;-2.30;100.00
55010;BME280;40903;51.638;7.528;2022-11-20T02:13:51;100681.03;;;-2.28;100.00
55010;BME280;40903;51.638;7.528;2022-11-20T02:16:20;100682.44;;;-2.25;100.00
55010;BME280;40903;51.638;7.528;2022-11-20T02:18:47;100679.78;;;-2.25;100.00
55010;BME280;40903;51.638;7.528;2022-11-20T02:21:14;100685.75;;;-2.23;100.00
55010;BME280;40903;51.638;7.528;2022-11-20T02:26:28;100683.47;;;-2.20;100.00
55010;BME280;40903;51.638;7.528;2022-11-20T02:28:54;100689.41;;;-2.18;100.00
55010;BME280;40903;51.638;7.528;2022-11-20T02:31:19;100692.31;;;-2.19;100.00
55010;BME280;40903;51.638;7.528;2022-11-20T02:33:45;100687.56;;;-2.17;100.00
55010;BME280;40903;51.638;7.528;2022-11-20T02:36:11;100691.69;;;-2.15;100.00
55010;BME280;40903;51.638;7.528;2022-11-20T02:38:37;100696.63;;;-2.12;100.00
55010;BME280;40903;51.638;7.528;2022-11-20T02:41:02;100691.69;;;-2.08;100.00
55010;BME280;40903;51.638;7.528;2022-11-20T02:43:28;100690.66;;;-2.07;100.00
55010;BME280;40903;51.638;7.528;2022-11-20T02:45:53;100685.91;;;-2.05;100.00
55010;BME280;40903;51.638;7.528;2022-11-20T02:48:18;100693.69;;;-2.04;100.00
55010;BME280;40903;51.638;7.528;2022-11-20T02:50:43;100683.66;;;-2.02;100.00
55010;BME280;40903;51.638;7.528;2022-11-20T02:53:08;100685.91;;;-1.99;100.00
55010;BME280;40903;51.638;7.528;2022-11-20T02:55:34;100680.94;;;-1.96;100.00
55010;BME280;40903;51.638;7.528;2022-11-20T02:57:59;100669.00;;;-1.93;100.00
55010;BME280;40903;51.638;7.528;2022-11-20T03:00:24;100668.59;;;-1.90;100.00
55010;BME280;40903;51.638;7.528;2022-11-20T03:02:49;100675.38;;;-1.88;100.00
55010;BME280;40903;51.638;7.528;2022-11-20T03:05:14;100674.75;;;-1.83;100.00
55010;BME280;40903;51.638;7.528;2022-11-20T03:07:40;100672.47;;;-1.80;100.00
55010;BME280;40903;51.638;7.528;2022-11-20T03:10:05;100669.16;;;-1.75;100.00
55010;BME280;40903;51.638;7.528;2022-11-20T03:12:30;100660.94;;;-1.74;100.00
55010;BME280;40903;51.638;7.528;2022-11-20T03:14:56;100661.72;;;-1.73;100.00
55010;BME280;40903;51.638;7.528;2022-11-20T03:17:21;100662.38;;;-1.71;100.00
55010;BME280;40903;51.638;7.528;2022-11-20T03:19:46;100655.16;;;-1.71;100.00
55010;BME280;40903;51.638;7.528;2022-11-20T03:22:11;100654.13;;;-1.70;100.00
55010;BME280;40903;51.638;7.528;2022-11-20T03:24:37;100659.03;;;-1.67;100.00
55010;BME280;40903;51.638;7.528;2022-11-20T03:27:02;100649.97;;;-1.66;100.00
55010;BME280;40903;51.638;7.528;2022-11-20T03:29:27;100659.25;;;-1.62;100.00
55010;BME280;40903;51.638;7.528;2022-11-20T03:31:52;100663.31;;;-1.59;100.00
55010;BME280;40903;51.638;7.528;2022-11-20T03:34:18;100656.72;;;-1.57;100.00
55010;BME280;40903;51.638;7.528;2022-11-20T03:36:43;100643.16;;;-1.55;100.00
55010;BME280;40903;51.638;7.528;2022-11-20T03:39:09;100633.69;;;-1.51;100.00
55010;BME280;40903;51.638;7.528;2022-11-20T03:41:38;100636.16;;;-1.50;100.00
55010;BME280;40903;51.638;7.528;2022-11-20T03:44:05;100637.34;;;-1.46;100.00
55010;BME280;40903;51.638;7.528;2022-11-20T03:46:31;100634.44;;;-1.44;100.00
55010;BME280;40903;51.638;7.528;2022-11-20T03:48:56;100635.88;;;-1.42;100.00
55010;BME280;40903;51.638;7.528;2022-11-20T03:51:23;100632.56;;;-1.37;100.00
55010;BME280;40903;51.638;7.528;2022-11-20T03:53:50;100630.69;;;-1.37;100.00
55010;BME280;40903;51.638;7.528;2022-11-20T03:56:16;100625.16;;;-1.35;100.00
55010;BME280;40903;51.638;7.528;2022-11-20T03:58:42;100632.13;;;-1.34;100.00
55010;BME280;40903;51.638;7.528;2022-11-20T04:01:13;100632.72;;;-1.32;100.00
55010;BME280;40903;51.638;7.528;2022-11-20T04:03:38;100628.41;;;-1.33;100.00
55010;BME280;40903;51.638;7.528;2022-11-20T04:06:08;100636.25;;;-1.32;100.00
55010;BME280;40903;51.638;7.528;2022-11-20T04:08:33;100633.13;;;-1.29;100.00
55010;BME280;40903;51.638;7.528;2022-11-20T04:11:07;100627.78;;;-1.29;100.00
55010;BME280;40903;51.638;7.528;2022-11-20T04:13:32;100640.13;;;-1.28;100.00
55010;BME280;40903;51.638;7.528;2022-11-20T04:15:58;100634.75;;;-1.28;100.00
55010;BME280;40903;51.638;7.528;2022-11-20T04:18:23;100629.41;;;-1.28;99.93
55010;BME280;40903;51.638;7.528;2022-11-20T04:20:48;100627.97;;;-1.30;99.85
55010;BME280;40903;51.638;7.528;2022-11-20T04:23:13;100619.34;;;-1.32;99.74
55010;BME280;40903;51.638;7.528;2022-11-20T04:25:38;100627.00;;;-1.36;99.68
55010;BME280;40903;51.638;7.528;2022-11-20T04:28:04;100625.34;;;-1.37;99.68
55010;BME280;40903;51.638;7.528;2022-11-20T04:30:29;100624.75;;;-1.39;99.60
55010;BME280;40903;51.638;7.528;2022-11-20T04:32:54;100620.44;;;-1.40;99.51
55010;BME280;40903;51.638;7.528;2022-11-20T04:35:19;100611.81;;;-1.42;99.37
55010;BME280;40903;51.638;7.528;2022-11-20T04:37:44;100615.97;;;-1.46;99.27
55010;BME280;40903;51.638;7.528;2022-11-20T04:40:10;100610.22;;;-1.49;99.08
55010;BME280;40903;51.638;7.528;2022-11-20T04:42:35;100622.97;;;-1.51;99.21
55010;BME280;40903;51.638;7.528;2022-11-20T04:45:00;100620.50;;;-1.53;99.17
55010;BME280;40903;51.638;7.528;2022-11-20T04:47:25;100609.44;;;-1.56;99.17
55010;BME280;40903;51.638;7.528;2022-11-20T04:49:51;100606.97;;;-1.58;99.13
55010;BME280;40903;51.638;7.528;2022-11-20T04:52:16;100619.75;;;-1.60;99.08
55010;BME280;40903;51.638;7.528;2022-11-20T04:54:41;100617.28;;;-1.61;99.26
55010;BME280;40903;51.638;7.528;2022-11-20T04:57:06;100610.28;;;-1.62;99.15
55010;BME280;40903;51.638;7.528;2022-11-20T04:59:32;100615.47;;;-1.67;98.86
55010;BME280;40903;51.638;7.528;2022-11-20T05:01:57;100616.72;;;-1.70;98.68
55010;BME280;40903;51.638;7.528;2022-11-20T05:04:22;100630.50;;;-1.73;98.73
55010;BME280;40903;51.638;7.528;2022-11-20T05:06:49;100622.09;;;-1.76;98.36
55010;BME280;40903;51.638;7.528;2022-11-20T05:09:14;100616.13;;;-1.78;97.99
55010;BME280;40903;51.638;7.528;2022-11-20T05:11:39;100633.84;;;-1.84;97.42
55010;BME280;40903;51.638;7.528;2022-11-20T05:14:04;100625.66;;;-1.89;97.19
55010;BME280;40903;51.638;7.528;2022-11-20T05:16:29;100626.88;;;-1.91;97.29
55010;BME280;40903;51.638;7.528;2022-11-20T05:18:55;100631.44;;;-1.98;96.98
55010;BME280;40903;51.638;7.528;2022-11-20T05:21:20;100632.66;;;-2.00;97.10
55010;BME280;40903;51.638;7.528;2022-11-20T05:23:46;100620.56;;;-2.03;97.18
55010;BME280;40903;51.638;7.528;2022-11-20T05:26:12;100618.72;;;-2.02;97.43
55010;BME280;40903;51.638;7.528;2022-11-20T05:28:38;100625.88;;;-2.03;97.50
55010;BME280;40903;51.638;7.528;2022-11-20T05:31:04;100622.63;;;-2.05;97.45
55010;BME280;40903;51.638;7.528;2022-11-20T05:33:29;100626.91;;;-2.04;97.54
55010;BME280;40903;51.638;7.528;2022-11-20T05:35:57;100632.25;;;-2.04;98.05
55010;BME280;40903;51.638;7.528;2022-11-20T05:38:23;100627.75;;;-2.03;98.04
55010;BME280;40903;51.638;7.528;2022-11-20T05:40:48;100625.69;;;-2.01;98.01
55010;BME280;40903;51.638;7.528;2022-11-20T05:43:13;100615.00;;;-2.01;98.29
55010;BME280;40903;51.638;7.528;2022-11-20T05:45:38;100623.63;;;-1.99;98.33
55010;BME280;40903;51.638;7.528;2022-11-20T05:48:04;100617.47;;;-2.00;98.16
55010;BME280;40903;51.638;7.528;2022-11-20T05:50:29;100612.94;;;-1.99;98.07
55010;BME280;40903;51.638;7.528;2022-11-20T05:52:54;100617.47;;;-2.00;98.19
55010;BME280;40903;51.638;7.528;2022-11-20T05:55:19;100614.38;;;-1.97;98.44
55010;BME280;40903;51.638;7.528;2022-11-20T05:57:45;100622.16;;;-1.96;98.58
55010;BME280;40903;51.638;7.528;2022-11-20T06:00:10;100620.31;;;-1.95;98.43
55010;BME280;40903;51.638;7.528;2022-11-20T06:02:35;100617.66;;;-1.95;98.46
55010;BME280;40903;51.638;7.528;2022-11-20T06:05:01;100610.69;;;-1.96;98.56
55010;BME280;40903;51.638;7.528;2022-11-20T06:07:26;100615.19;;;-1.97;98.62
55010;BME280;40903;51.638;7.528;2022-11-20T06:09:51;100603.91;;;-1.98;98.71
55010;BME280;40903;51.638;7.528;2022-11-20T06:12:16;100615.84;;;-2.01;98.77
55010;BME280;40903;51.638;7.528;2022-11-20T06:14:41;100606.19;;;-2.02;98.95
55010;BME280;40903;51.638;7.528;2022-11-20T06:17:07;100606.19;;;-2.02;99.14
55010;BME280;40903;51.638;7.528;2022-11-20T06:19:32;100599.41;;;-2.04;99.28
55010;BME280;40903;51.638;7.528;2022-11-20T06:21:57;100614.59;;;-2.05;99.20
55010;BME280;40903;51.638;7.528;2022-11-20T06:24:22;100613.41;;;-2.09;99.08
55010;BME280;40903;51.638;7.528;2022-11-20T06:26:50;100610.91;;;-2.10;99.10
55010;BME280;40903;51.638;7.528;2022-11-20T06:29:15;100604.38;;;-2.14;99.26
55010;BME280;40903;51.638;7.528;2022-11-20T06:31:40;100611.56;;;-2.15;99.49
55010;BME280;40903;51.638;7.528;2022-11-20T06:34:07;100617.72;;;-2.14;99.30
55010;BME280;40903;51.638;7.528;2022-11-20T06:36:33;100622.47;;;-2.16;99.17
55010;BME280;40903;51.638;7.528;2022-11-20T06:38:59;100621.84;;;-2.18;99.21
55010;BME280;40903;51.638;7.528;2022-11-20T06:41:24;100618.16;;;-2.17;99.32
55010;BME280;40903;51.638;7.528;2022-11-20T06:43:50;100621.00;;;-2.19;99.28
55010;BME280;40903;51.638;7.528;2022-11-20T06:46:16;100630.66;;;-2.18;99.21
55010;BME280;40903;51.638;7.528;2022-11-20T06:48:44;100633.13;;;-2.16;99.19
55010;BME280;40903;51.638;7.528;2022-11-20T06:51:10;100631.91;;;-2.14;99.39
55010;BME280;40903;51.638;7.528;2022-11-20T06:53:35;100629.84;;;-2.12;99.55
55010;BME280;40903;51.638;7.528;2022-11-20T06:56:00;100630.44;;;-2.10;99.53
55010;BME280;40903;51.638;7.528;2022-11-20T06:58:26;100626.75;;;-2.09;99.60
55010;BME280;40903;51.638;7.528;2022-11-20T07:00:52;100622.84;;;-2.06;99.99
55010;BME280;40903;51.638;7.528;2022-11-20T07:03:17;100629.59;;;-2.04;100.00
55010;BME280;40903;51.638;7.528;2022-11-20T07:05:43;100634.75;;;-2.02;100.00
55010;BME280;40903;51.638;7.528;2022-11-20T07:08:10;100630.00;;;-2.00;100.00
55010;BME280;40903;51.638;7.528;2022-11-20T07:10:35;100627.94;;;-1.98;100.00
55010;BME280;40903;51.638;7.528;2022-11-20T07:13:00;100630.19;;;-1.96;100.00
55010;BME280;40903;51.638;7.528;2022-11-20T07:15:25;100631.63;;;-1.93;100.00
55010;BME280;40903;51.638;7.528;2022-11-20T07:17:51;100633.06;;;-1.91;100.00
55010;BME280;40903;51.638;7.528;2022-11-20T07:20:17;100641.47;;;-1.87;100.00
55010;BME280;40903;51.638;7.528;2022-11-20T07:22:42;100640.44;;;-1.86;100.00
55010;BME280;40903;51.638;7.528;2022-11-20T07:25:08;100636.72;;;-1.85;100.00
55010;BME280;40903;51.638;7.528;2022-11-20T07:27:33;100636.72;;;-1.85;100.00
55010;BME280;40903;51.638;7.528;2022-11-20T07:29:59;100641.03;;;-1.84;100.00
55010;BME280;40903;51.638;7.528;2022-11-20T07:32:24;100642.06;;;-1.85;100.00
55010;BME280;40903;51.638;7.528;2022-11-20T07:34:49;100633.63;;;-1.82;100.00
55010;BME280;40903;51.638;7.528;2022-11-20T07:37:14;100640.63;;;-1.81;100.00
55010;BME280;40903;51.638;7.528;2022-11-20T07:39:40;100646.56;;;-1.79;100.00
55010;BME280;40903;51.638;7.528;2022-11-20T07:42:08;100647.41;;;-1.79;100.00
55010;BME280;40903;51.638;7.528;2022-11-20T07:44:33;100648.19;;;-1.78;100.00
55010;BME280;40903;51.638;7.528;2022-11-20T07:46:59;100646.56;;;-1.79;100.00
55010;BME280;40903;51.638;7.528;2022-11-20T07:49:24;100637.75;;;-1.80;100.00
55010;BME280;40903;51.638;7.528;2022-11-20T07:51:52;100639.97;;;-1.77;100.00
55010;BME280;40903;51.638;7.528;2022-11-20T07:54:20;100643.69;;;-1.78;100.00
55010;BME280;40903;51.638;7.528;2022-11-20T07:56:46;100643.47;;;-1.76;100.00
55010;BME280;40903;51.638;7.528;2022-11-20T07:59:12;100647.56;;;-1.74;100.00
55010;BME280;40903;51.638;7.528;2022-11-20T08:01:40;100644.69;;;-1.72;100.00
55010;BME280;40903;51.638;7.528;2022-11-20T08:04:06;100652.72;;;-1.72;100.00
55010;BME280;40903;51.638;7.528;2022-11-20T08:06:31;100644.69;;;-1.72;100.00
55010;BME280;40903;51.638;7.528;2022-11-20T08:08:56;100653.09;;;-1.69;100.00
55010;BME280;40903;51.638;7.528;2022-11-20T08:11:21;100645.47;;;-1.65;100.00
55010;BME280;40903;51.638;7.528;2022-11-20T08:14:05;100653.06;;;-1.62;100.00
55010;BME280;40903;51.638;7.528;2022-11-20T08:16:36;100658.81;;;-1.59;100.00
55010;BME280;40903;51.638;7.528;2022-11-20T08:19:01;100655.50;;;-1.54;100.00
55010;BME280;40903;51.638;7.528;2022-11-20T08:21:27;100656.50;;;-1.49;100.00
55010;BME280;40903;51.638;7.528;2022-11-20T08:23:52;100652.13;;;-1.43;100.00
55010;BME280;40903;51.638;7.528;2022-11-20T08:26:17;100650.69;;;-1.39;100.00
55010;BME280;40903;51.638;7.528;2022-11-20T08:28:42;100639.56;;;-1.36;100.00
55010;BME280;40903;51.638;7.528;2022-11-20T08:31:09;100639.72;;;-1.31;100.00
55010;BME280;40903;51.638;7.528;2022-11-20T08:33:35;100638.88;;;-1.25;100.00
55010;BME280;40903;51.638;7.528;2022-11-20T08:36:04;100645.41;;;-1.21;100.00
55010;BME280;40903;51.638;7.528;2022-11-20T08:38:30;100645.97;;;-1.13;100.00
55010;BME280;40903;51.638;7.528;2022-11-20T08:40:59;100645.34;;;-1.08;100.00
55010;BME280;40903;51.638;7.528;2022-11-20T08:43:43;100639.69;;;-1.00;100.00
55010;BME280;40903;51.638;7.528;2022-11-20T08:46:08;100639.88;;;-0.95;100.00
55010;BME280;40903;51.638;7.528;2022-11-20T08:48:33;100635.09;;;-0.87;100.00
55010;BME280;40903;51.638;7.528;2022-11-20T08:50:59;100635.84;;;-0.80;100.00
55010;BME280;40903;51.638;7.528;2022-11-20T08:53:24;100636.81;;;-0.74;100.00
55010;BME280;40903;51.638;7.528;2022-11-20T08:55:49;100626.66;;;-0.66;100.00
55010;BME280;40903;51.638;7.528;2022-11-20T08:58:15;100628.63;;;-0.55;100.00
55010;BME280;40903;51.638;7.528;2022-11-20T09:00:40;100636.09;;;-0.39;100.00
55010;BME280;40903;51.638;7.528;2022-11-20T09:03:05;100632.75;;;-0.16;100.00
55010;BME280;40903;51.638;7.528;2022-11-20T09:05:30;100631.41;;;0.10;100.00
55010;BME280;40903;51.638;7.528;2022-11-20T09:07:56;100636.28;;;0.31;100.00
55010;BME280;40903;51.638;7.528;2022-11-20T09:10:21;100637.38;;;0.42;100.00
55010;BME280;40903;51.638;7.528;2022-11-20T09:12:48;100627.63;;;0.47;100.00
55010;BME280;40903;51.638;7.528;2022-11-20T09:15:13;100630.22;;;0.54;100.00
55010;BME280;40903;51.638;7.528;2022-11-20T09:17:39;100634.91;;;0.58;100.00
55010;BME280;40903;51.638;7.528;2022-11-20T09:20:04;100639.59;;;0.63;100.00
55010;BME280;40903;51.638;7.528;2022-11-20T09:22:29;100630.41;;;0.70;100.00
55010;BME280;40903;51.638;7.528;2022-11-20T09:24:55;100628.44;;;0.77;100.00
55010;BME280;40903;51.638;7.528;2022-11-20T09:27:20;100623.78;;;0.84;100.00
55010;BME280;40903;51.638;7.528;2022-11-20T09:29:46;100617.03;;;0.93;100.00
55010;BME280;40903;51.638;7.528;2022-11-20T09:32:11;100622.66;;;1.03;100.00
55010;BME280;40903;51.638;7.528;2022-11-20T09:34:36;100618.94;;;1.16;100.00
55010;BME280;40903;51.638;7.528;2022-11-20T09:37:02;100609.25;;;1.26;100.00
55010;BME280;40903;51.638;7.528;2022-11-20T09:39:27;100608.44;;;1.37;100.00
55010;BME280;40903;51.638;7.528;2022-11-20T09:47:06;100602.84;;;1.73;100.00
55010;BME280;40903;51.638;7.528;2022-11-20T09:49:37;100599.56;;;1.83;100.00
55010;BME280;40903;51.638;7.528;2022-11-20T09:54:37;100595.31;;;1.98;100.00
55010;BME280;40903;51.638;7.528;2022-11-20T09:57:17;100591.41;;;2.05;99.73
55010;BME280;40903;51.638;7.528;2022-11-20T09:59:45;100590.00;;;2.14;99.26
55010;BME280;40903;51.638;7.528;2022-11-20T10:04:53;100582.59;;;2.33;98.31
55010;BME280;40903;51.638;7.528;2022-11-20T10:07:21;100582.41;;;2.39;97.59
55010;BME280;40903;51.638;7.528;2022-11-20T10:09:52;100587.06;;;2.44;97.22
55010;BME280;40903;51.638;7.528;2022-11-20T10:20:30;100573.13;;;2.47;96.32
55010;BME280;40903;51.638;7.528;2022-11-20T10:25:33;100564.59;;;2.50;95.77
55010;BME280;40903;51.638;7.528;2022-11-20T10:28:06;100571.69;;;2.56;95.84
55010;BME280;40903;51.638;7.528;2022-11-20T10:30:40;100571.31;;;2.64;96.22
55010;BME280;40903;51.638;7.528;2022-11-20T10:33:11;100570.91;;;2.72;95.74
55010;BME280;40903;51.638;7.528;2022-11-20T10:35:40;100570.25;;;2.81;95.43
55010;BME280;40903;51.638;7.528;2022-11-20T10:38:19;100559.41;;;2.93;95.29
55010;BME280;40903;51.638;7.528;2022-11-20T10:40:47;100554.19;;;3.03;95.25
55010;BME280;40903;51.638;7.528;2022-11-20T10:45:44;100557.97;;;3.18;94.45
55010;BME280;40903;51.638;7.528;2022-11-20T10:48:12;100560.16;;;3.21;93.93
55010;BME280;40903;51.638;7.528;2022-11-20T10:50:40;100560.00;;;3.28;93.64
55010;BME280;40903;51.638;7.528;2022-11-20T10:53:14;100542.09;;;3.38;93.04
55010;BME280;40903;51.638;7.528;2022-11-20T10:55:45;100544.94;;;3.48;91.91
55010;BME280;40903;51.638;7.528;2022-11-20T11:00:37;100542.53;;;3.52;90.50
55010;BME280;40903;51.638;7.528;2022-11-20T11:03:02;100537.75;;;3.54;90.26
55010;BME280;40903;51.638;7.528;2022-11-20T11:07:59;100537.19;;;3.73;88.83
55010;BME280;40903;51.638;7.528;2022-11-20T11:10:36;100538.72;;;3.85;88.01
55010;BME280;40903;51.638;7.528;2022-11-20T11:13:06;100534.19;;;3.91;84.15
55010;BME280;40903;51.638;7.528;2022-11-20T11:15:38;100536.06;;;3.90;83.06
55010;BME280;40903;51.638;7.528;2022-11-20T11:18:04;100534.66;;;3.88;83.80
55010;BME280;40903;51.638;7.528;2022-11-20T11:20:29;100530.16;;;3.93;82.25
55010;BME280;40903;51.638;7.528;2022-11-20T11:22:55;100531.78;;;3.94;81.55
55010;BME280;40903;51.638;7.528;2022-11-20T11:25:26;100519.38;;;3.93;80.55
55010;BME280;40903;51.638;7.528;2022-11-20T11:27:52;100513.75;;;3.95;78.91
55010;BME280;40903;51.638;7.528;2022-11-20T11:30:20;100513.09;;;3.88;79.31
55010;BME280;40903;51.638;7.528;2022-11-20T11:32:45;100520.63;;;3.86;80.20
55010;BME280;40903;51.638;7.528;2022-11-20T11:37:45;100513.78;;;3.78;81.03
55010;BME280;40903;51.638;7.528;2022-11-20T11:40:12;100511.09;;;3.78;80.66
55010;BME280;40903;51.638;7.528;2022-11-20T11:42:41;100508.47;;;3.83;81.52
55010;BME280;40903;51.638;7.528;2022-11-20T11:45:07;100509.84;;;3.86;81.42
55010;BME280;40903;51.638;7.528;2022-11-20T11:47:36;100511.22;;;3.88;82.07
55010;BME280;40903;51.638;7.528;2022-11-20T11:52:43;100505.13;;;3.98;81.23
55010;BME280;40903;51.638;7.528;2022-11-20T11:55:13;100510.03;;;4.01;81.36
55010;BME280;40903;51.638;7.528;2022-11-20T11:57:46;100496.84;;;4.04;81.94
55010;BME280;40903;51.638;7.528;2022-11-20T12:00:16;100497.91;;;4.03;81.33
55010;BME280;40903;51.638;7.528;2022-11-20T12:05:20;100490.00;;;4.18;77.17
55010;BME280;40903;51.638;7.528;2022-11-20T12:10:22;100478.09;;;4.14;76.71
55010;BME280;40903;51.638;7.528;2022-11-20T12:12:55;100474.78;;;4.12;76.96
55010;BME280;40903;51.638;7.528;2022-11-20T12:15:28;100475.31;;;4.09;77.51
55010;BME280;40903;51.638;7.528;2022-11-20T12:17:54;100466.41;;;4.09;78.04
55010;BME280;40903;51.638;7.528;2022-11-20T12:20:20;100475.31;;;4.09;78.05
55010;BME280;40903;51.638;7.528;2022-11-20T12:23:00;100468.03;;;4.10;78.98
55010;BME280;40903;51.638;7.528;2022-11-20T12:25:28;100460.50;;;4.12;79.30
55010;BME280;40903;51.638;7.528;2022-11-20T12:30:26;100439.53;;;4.19;81.14
55010;BME280;40903;51.638;7.528;2022-11-20T12:35:51;100432.03;;;4.26;80.39
55010;BME280;40903;51.638;7.528;2022-11-20T12:43:33;100426.47;;;4.37;79.92
55010;BME280;40903;51.638;7.528;2022-11-20T12:49:02;100422.50;;;4.45;79.15
55010;BME280;40903;51.638;7.528;2022-11-20T12:51:37;100417.41;;;4.48;79.23
55010;BME280;40903;51.638;7.528;2022-11-20T12:54:08;100413.38;;;4.51;79.42
55010;BME280;40903;51.638;7.528;2022-11-20T12:56:57;100409.31;;;4.48;78.99
55010;BME280;40903;51.638;7.528;2022-11-20T13:02:03;100404.97;;;4.47;79.72
55010;BME280;40903;51.638;7.528;2022-11-20T13:07:03;100404.13;;;4.42;79.15
55010;BME280;40903;51.638;7.528;2022-11-20T13:09:30;100395.19;;;4.41;79.37
55010;BME280;40903;51.638;7.528;2022-11-20T13:19:47;100379.72;;;4.32;79.67
55010;BME280;40903;51.638;7.528;2022-11-20T13:22:23;100373.47;;;4.26;79.96
55010;BME280;40903;51.638;7.528;2022-11-20T13:24:51;100369.44;;;4.24;80.70
55010;BME280;40903;51.638;7.528;2022-11-20T13:27:18;100369.66;;;4.17;79.97
55010;BME280;40903;51.638;7.528;2022-11-20T13:29:45;100359.38;;;4.14;80.09
55010;BME280;40903;51.638;7.528;2022-11-20T13:32:15;100346.38;;;4.11;79.40
55010;BME280;40903;51.638;7.528;2022-11-20T13:34:53;100350.41;;;4.09;79.70
55010;BME280;40903;51.638;7.528;2022-11-20T13:37:30;100342.31;;;4.09;79.66
55010;BME280;40903;51.638;7.528;2022-11-20T13:40:06;100329.09;;;4.07;80.23
55010;BME280;40903;51.638;7.528;2022-11-20T13:42:46;100322.31;;;4.05;79.78
55010;BME280;40903;51.638;7.528;2022-11-20T13:47:48;100315.56;;;4.02;80.58
55010;BME280;40903;51.638;7.528;2022-11-20T13:50:14;100322.59;;;4.03;81.47
55010;BME280;40903;51.638;7.528;2022-11-20T13:52:44;100317.19;;;4.03;82.24
55010;BME280;40903;51.638;7.528;2022-11-20T13:55:35;100309.09;;;4.03;81.94
55010;BME280;40903;51.638;7.528;2022-11-20T14:00:56;100302.84;;;3.98;82.55